Plymouth Peak Pro Challenge - Loft Flying

Station: INVENTORY - T Race

Distance: 10 Miles    

Release: 04-Jun-2018 10:00

Weather Release:    Arrival:

Wind at Release:     Wind at Arrival:

Temp at Release: °    Temp at Arrival: °

Lofts: 122

Birds: 661

Clocked: 649

Good Luck to Everyone!
Drops Pos Breeder Pigeon Name Color Sex Ent Arrival Speed To Win Eligible AOC
101 G & L Loft - OR 3117-AU18-WPC BB H 1 10:35:34.70 494.683 00:02:33 Yes
102 Csa - MS 6529-AU18-FOYS BBSM C 1 10:35:34.90 494.637 00:02:33 Yes
103 Spring Break Race - UT 22413-AU18-AA BBWF H 2 10:35:35.00 494.614 00:02:33 Yes
103 Rory Smith - UT 8406-AU18-CDR BB C 2 10:35:35.00 494.614 00:02:33 Yes
105 Bryan Maier - PA 0385-IF18-MAIE BB C 2 10:35:35.40 494.521 00:02:34 Yes
106 Shewmaker.Com - CA 8041-AU18-SHEW BCWF H 1 10:35:36.00 494.382 00:02:35 Yes
107 Smith R.P.L. - UT 3563-AU18-SRPL BBWF H 2 10:35:36.10 494.359 00:02:35 Yes
108 Jones Boys - UT 0420-AU18-SLI DNBB H 1 10:35:36.40 494.289 00:02:35 Yes
109 Yendez Loft - TX 0118-AU18-YEND BB H 1 10:35:36.90 494.174 00:02:35 Yes
110 Skyraider - WA 8228-AU18-TCW GRIZ H 1 10:35:37.40 494.058 00:02:36 Yes
111 Bryan Maier - PA 0328-IF18-MAIE BB C 3 10:35:37.60 494.012 00:02:36 Yes
112 Jactions Loft - CA 0841-AU18-AA BB C 5 10:35:38.00 493.920 00:02:36 Yes
113 Lindsay - UT 18738-AU18-RMR BBSM H 1 10:35:38.40 493.827 00:02:37 Yes
114 Duvall/Whiteley - UT 1476-AU18-WFA LTBC H 1 10:35:38.80 493.735 00:02:37 Yes
115 Eastern Pearl Loft - VA 0385-AU18-EPL ๐Ÿˆš๏ธ้‡ 385 BBPD H 1 10:35:39.20 493.642 00:02:38 Yes
116 S & M Loft - Eden Loft - ID 6940-AU18-AA MLY H 1 10:35:39.60 493.550 00:02:38 Yes
116 Slick Hills Loft - UT 38637-AU18-ARPU WGRZ C 3 10:35:39.60 493.550 00:02:38 Yes
118 Great Wall - VA 12068-AU18-TONY BBWF H 1 10:35:39.70 493.527 00:02:38 Yes
118 Pairan Racing Loft - OH 0020-AU18-LFO BB C 3 10:35:39.70 493.527 00:02:38 Yes
118 Smith R.P.L. - UT 0712-AU18-UVI BCSM C 3 10:35:39.70 493.527 00:02:38 Yes
121 Red Ass Ranch - TX 17698-AU18-ADA BB H 2 10:35:40.30 493.389 00:02:39 Yes
122 - G I L I G I T L O F T - - CA 25737-AU18-JEDD GILIGIT JETBLUE BBTC H 1 10:35:40.40 493.366 00:02:39 Yes
122 Nanez Family Lofts - WI 8112-AU18-NFL BB C 2 10:35:40.40 493.366 00:02:39 Yes
124 Nanez Family Lofts - WI 8141-AU18-NFL BB C 3 10:35:40.70 493.297 00:02:39 Yes
125 Suttons Corner - GA 0475-AU18-NA BBSP H 1 10:35:40.80 493.274 00:02:39 Yes
126 Wessel Family Lofts - CA 2025-AU18-ARC BBSP H 1 10:35:41.00 493.227 00:02:40 Yes
127 J & M Partridge Loft - CA 1068-AU18-PASO BBTC H 2 10:35:41.50 493.112 00:02:40 Yes
128 Ed Kehl - UT 1504-AU18-WFA BB H 1 10:35:42.00 492.997 00:02:41 Yes
128 Fleet Washington - DC 1821-AU18-FLEE BBSM H 1 10:35:42.00 492.997 00:02:41 Yes
130 Polskie Orly Loft - CA 0318-AU18-OCF Dahliaโ€™s Prince DCTC C 1 10:35:42.40 492.905 00:02:41 Yes
130 Slick Hills Loft - UT 38618-AU18-ARPU BBSP H 4 10:35:42.40 492.905 00:02:41 Yes
132 Shi Loft - PA 7724-IF18-ERIE BBTC C 1 10:35:42.50 492.882 00:02:41 Yes
133 Kenneth Lum Lee - HI 0039-AU18-FIA WGRZ H 2 10:35:42.80 492.813 00:02:41 Yes
134 Fleet Washington - DC 1805-AU18-FLEE BCSM C 2 10:35:42.90 492.790 00:02:41 Yes
135 Racing Pigeon Mall - WA 0815-AU18-RPM DC C 1 10:35:43.30 492.698 00:02:42 Yes
136 John R Helms - AL 0858-AU18-HELM BB C 2 10:35:43.70 492.606 00:02:42 Yes
136 Columba Loft - GA 8223-AU18-LYNC BC H 2 10:35:43.70 492.606 00:02:42 Yes
138 M & Y Connection - MI 0036-AU18-MSYP 232 X 1295 BBSP H 2 10:35:43.80 492.583 00:02:42 Yes
138 Emerson & Donnelly - SC 0372-AU18-VITA BB H 2 10:35:43.80 492.583 00:02:42 Yes
140 Redrock Kennel - OK 17201-AU18-ADA BB H 2 10:35:44.10 492.514 00:02:43 Yes
141 Slick Hills Loft - UT 38639-AU18-ARPU BBWF H 5 10:35:44.20 492.491 00:02:43 Yes
141 D G F Loft - UT 0323-AU18-UVI 645x217 LTBC H 3 10:35:44.20 492.491 00:02:43 Yes
143 Rocky Mountain Racing - UT 1801-AU18-KFLY BB H 3 10:35:44.50 492.422 00:02:43 Yes
144 Western Loft - CA 0477-AU18-SFR BB H 2 10:35:44.80 492.354 00:02:43 Yes
144 Racing Pigeon Digest - MT 1017-AU18-DIGE GRIZ H 2 10:35:44.80 492.354 00:02:43 Yes
146 Kastle Loft - KY 1801-AU18-KAST Dowhatchawannado BB H 1 10:35:44.90 492.331 00:02:43 Yes
146 Duvall/Whiteley - UT 0751-AU18-UVI BB H 2 10:35:44.90 492.331 00:02:43 Yes
148 Spring Break Race - UT 7283-AU18-FOYS BBPN C 3 10:35:45.30 492.239 00:02:44 Yes
148 Skylinerpl.Com - UT 1050-AU18-UVI "Mrs Blue Missle" BBWF H 2 10:35:45.30 492.239 00:02:44 Yes
150 P N W Challenge - ID 0134-AU18-PNWC Pair#1 BB C 1 10:35:45.70 492.147 00:02:44 Yes
151 Columba Loft - GA 8118-AU18-LYNC BC H 3 10:35:45.80 492.124 00:02:44 Yes
151 Great Wall - VA 0032-AU18-JIMM BB H 2 10:35:45.80 492.124 00:02:44 Yes
151 Nanez Family Lofts - WI 8134-AU18-NFL BC H 4 10:35:45.80 492.124 00:02:44 Yes
154 Gray Fox Harms - IL 1875-AU18-GRAY BC C 1 10:35:46.30 492.010 00:02:45 Yes
155 Ed Kehl - UT 1501-AU18-WFA LTRC H 2 10:35:46.60 491.941 00:02:45 Yes
155 Royers Loft - UT 0125-AU18-SLI BCWF H 1 10:35:46.60 491.941 00:02:45 Yes
157 Nemelka Racing Pigeon Loft - UT 8041-AU18-NRPL Suprstitous X Ms. Guided BB H 2 10:35:46.90 491.872 00:02:45 Yes
158 Sierra Ranch - CA 0809-AU18-SIER BBWF H 3 10:35:47.00 491.849 00:02:46 Yes
158 Kolvenbag & Son - PA 1604-IF18-NEW BBPD C 2 10:35:47.00 491.849 00:02:46 Yes
160 Pairan Racing Loft - OH 0026-AU18-LFO BB C 4 10:35:47.40 491.757 00:02:46 Yes
160 S & M Loft - Eden Loft - ID 7078-AU18-AA BC C 2 10:35:47.40 491.757 00:02:46 Yes
162 Kolvenbag & Son - PA 1248-IF18-KOLV BC H 3 10:35:47.50 491.735 00:02:46 Yes
163 Red Ass Ranch - TX 0334-AU18-RAR BB H 3 10:35:47.90 491.643 00:02:46 Yes
163 Eastern Pearl Loft - VA 0343-AU18-EPL ๐Ÿˆš๏ธ้‡ 343 BC H 2 10:35:47.90 491.643 00:02:46 Yes
163 Nanez Family Lofts - WI 8120-AU18-NFL BB C 5 10:35:47.90 491.643 00:02:46 Yes
166 P N W Challenge - ID 0128-AU18-PNWC Pair#17 BBSM H 2 10:35:48.30 491.551 00:02:47 Yes
167 Nykamp Loft - ID 8707-AU18-NYKA Loco Cool X Maggie BB H 2 10:35:48.60 491.483 00:02:47 Yes
167 Western Loft - CA 0307-AU18-SFR BB C 3 10:35:48.60 491.483 00:02:47 Yes
169 Racing Pigeon Mall - WA 0812-AU18-RPM BB H 2 10:35:48.90 491.414 00:02:47 Yes
170 Slick Hills Loft - UT 38619-AU18-ARPU BC C 6 10:35:49.00 491.391 00:02:48 Yes
171 Gold Country Challenge - CA 0011-AU18-HANG BB H 2 10:35:49.40 491.300 00:02:48 Yes
171 B W Loft - ID 18327-AU18-RMR Melania BB H 2 10:35:49.40 491.300 00:02:48 Yes
173 Nykamp Loft - ID 8943-AU18-NYKA 2870x2872 BC H 3 10:35:49.90 491.186 00:02:48 Yes
174 Jactions Loft - CA 0844-AU18-AA BBWF H 6 10:35:50.20 491.117 00:02:49 Yes
174 Brook Loft - NC 8670-IF18-CCF BCTC C 4 10:35:50.20 491.117 00:02:49 Yes
176 Marengo Creek Farms - AL 3023-AU18-MCF BBSP H 2 10:35:50.50 491.049 00:02:49 Yes
177 B T L - AL 0804-AU18-BTL BC H 2 10:35:50.90 490.957 00:02:49 Yes
177 Jomo - CA 4422-AU18-ARPU BC H 1 10:35:50.90 490.957 00:02:49 Yes
177 Rory Smith - UT 8421-AU18-CDR BB C 3 10:35:50.90 490.957 00:02:49 Yes
180 Jactions Loft - CA 0846-AU18-AA BB H 7 10:35:51.00 490.934 00:02:50 Yes
181 Poorhouse Road Loft - VA 56004-AU18-ARPU BBWF C 1 10:35:51.30 490.866 00:02:50 Yes
182 B W Loft - ID 18314-AU18-RMR Christmas Chrome BCPD H 3 10:35:51.70 490.775 00:02:50 Yes
183 P N W Challenge - ID 0110-AU18-PNWC Pair#8 BB H 3 10:35:51.80 490.752 00:02:50 Yes
183 Hawkroost Loft - OH 0977-AU18-CIN BC C 2 10:35:51.80 490.752 00:02:50 Yes
185 A P C Loft - TX 18196-AU18-APC BB H 3 10:35:51.90 490.729 00:02:50 Yes
186 A P C Loft - TX 18134-AU18-APC BBSM H 4 10:35:52.40 490.615 00:02:51 Yes
187 Eastern Pearl Loft - VA 0363-AU18-EPL ๐Ÿˆš๏ธ้‡ 363 BC C 3 10:35:52.80 490.524 00:02:51 Yes
187 Tony Sorrentino - NJ 0612-AU18-ATS BC C 3 10:35:52.80 490.524 00:02:51 Yes
187 Rory Smith - UT 8404-AU18-CDR BBWF H 4 10:35:52.80 490.524 00:02:51 Yes
190 Nanez Family Lofts - WI 8068-AU18-NFL BB H 6 10:35:52.90 490.501 00:02:51 Yes
191 Catherine And Geoff Cooper - BA 0509-AU18-RIXE BC C 1 10:35:53.20 490.433 00:02:52 Yes
192 Wessel Family Lofts - CA 2045-AU18-ARC BBTC H 2 10:35:53.60 490.342 00:02:52 Yes
193 S & M Loft - Eden Loft - ID 6903-AU18-AA RCSP C 3 10:35:54.00 490.251 00:02:53 Yes
194 Polskie Orly Loft - CA 0319-AU18-OCF DC H 2 10:35:54.30 490.182 00:02:53 Yes
195 Duvall/Whiteley - UT 1479-AU18-WFA BC H 3 10:35:54.50 490.137 00:02:53 Yes
196 M2 Loft - UT 0121-AU18-UVI BB H 2 10:35:54.60 490.114 00:02:53 Yes
196 Fassio Loft - UT 0908-AU18-SLI BBSP H 3 10:35:54.60 490.114 00:02:53 Yes
198 Highland Loft - NY 18102-AU18-DZ BB H 2 10:35:55.00 490.023 00:02:54 Yes
199 S & M Loft - Eden Loft - ID 7083-AU18-AA MLY C 4 10:35:55.10 490.000 00:02:54 Yes
199 Triangle F Loft - UT 0230-AU18-UVI BBWF C 2 10:35:55.10 490.000 00:02:54 Yes

There are 661 bird records

Note: These Race Results are unofficial and subject to change until verified by the Race Committee and declared final.